createdAt,value
2022-12-06T00:00:09.507Z,2.90
2022-12-06T00:02:40.512Z,2.90
2022-12-06T00:05:10.169Z,3.00
2022-12-06T00:07:38.277Z,3.00
2022-12-06T00:10:07.853Z,3.00
2022-12-06T00:12:35.871Z,2.90
2022-12-06T00:15:04.046Z,2.80
2022-12-06T00:17:32.014Z,2.80
2022-12-06T00:20:00.281Z,2.80
2022-12-06T00:22:29.959Z,2.80
2022-12-06T00:24:57.980Z,2.80
2022-12-06T00:27:26.025Z,2.80
2022-12-06T00:29:53.996Z,2.80
2022-12-06T00:32:22.027Z,2.80
2022-12-06T00:34:49.993Z,2.70
2022-12-06T00:37:17.927Z,2.70
2022-12-06T00:39:47.221Z,2.70
2022-12-06T00:42:15.181Z,2.80
2022-12-06T00:44:43.193Z,2.70
2022-12-06T00:47:11.330Z,2.70
2022-12-06T00:49:39.324Z,2.70
2022-12-06T00:52:07.289Z,2.70
2022-12-06T00:54:35.309Z,2.70
2022-12-06T00:57:04.684Z,2.70
2022-12-06T00:59:32.756Z,2.60
2022-12-06T01:02:00.754Z,2.60
2022-12-06T01:04:28.729Z,2.60
2022-12-06T01:06:56.708Z,2.60
2022-12-06T01:09:24.761Z,2.60
2022-12-06T01:11:52.701Z,2.60
2022-12-06T01:14:22.001Z,2.60
2022-12-06T01:16:49.956Z,2.60
2022-12-06T01:19:18.124Z,2.60
2022-12-06T01:21:46.065Z,2.60
2022-12-06T01:24:13.978Z,2.60
2022-12-06T01:26:42.078Z,2.60
2022-12-06T01:29:11.549Z,2.60
2022-12-06T01:31:40.890Z,2.60
2022-12-06T01:34:14.246Z,2.60
2022-12-06T01:36:42.366Z,2.60
2022-12-06T01:39:11.254Z,2.60
2022-12-06T01:41:40.365Z,2.60
2022-12-06T01:44:09.296Z,2.60
2022-12-06T01:46:43.311Z,2.60
2022-12-06T01:49:20.155Z,2.60
2022-12-06T01:51:52.402Z,2.60
2022-12-06T01:54:21.790Z,2.60
2022-12-06T01:56:51.606Z,2.60
2022-12-06T01:59:20.918Z,2.60
2022-12-06T02:01:51.388Z,2.60
2022-12-06T02:04:20.348Z,2.60
2022-12-06T02:06:49.323Z,2.60
2022-12-06T02:09:18.569Z,2.60
2022-12-06T02:11:47.373Z,2.60
2022-12-06T02:14:18.466Z,2.60
2022-12-06T02:17:10.291Z,2.60
2022-12-06T02:19:59.474Z,2.60
2022-12-06T02:22:36.726Z,2.60
2022-12-06T02:25:24.563Z,2.60
2022-12-06T02:28:11.491Z,2.60
2022-12-06T02:30:44.837Z,2.60
2022-12-06T02:33:20.509Z,2.60
2022-12-06T02:35:53.072Z,2.60
2022-12-06T02:38:26.592Z,2.60
2022-12-06T02:40:59.326Z,2.60
2022-12-06T02:43:31.730Z,2.60
2022-12-06T02:46:04.499Z,2.60
2022-12-06T02:48:34.544Z,2.60
2022-12-06T02:51:05.998Z,2.60
2022-12-06T02:53:38.034Z,2.70
2022-12-06T02:56:06.822Z,2.60
2022-12-06T02:58:37.085Z,2.60
2022-12-06T03:01:11.965Z,2.60
2022-12-06T03:04:02.010Z,2.70
2022-12-06T03:06:42.745Z,2.70
2022-12-06T03:09:24.707Z,2.70
2022-12-06T03:11:58.267Z,2.70
2022-12-06T03:14:28.674Z,2.70
2022-12-06T03:17:09.449Z,2.70
2022-12-06T03:19:40.892Z,2.70
2022-12-06T03:22:13.146Z,2.70
2022-12-06T03:24:42.686Z,2.80
2022-12-06T03:27:13.767Z,2.80
2022-12-06T03:29:44.603Z,2.80
2022-12-06T03:32:16.557Z,2.80
2022-12-06T03:34:48.419Z,2.80
2022-12-06T03:37:19.729Z,2.80
2022-12-06T03:39:53.714Z,2.80
2022-12-06T03:42:21.922Z,2.80
2022-12-06T03:44:49.923Z,2.80
2022-12-06T03:47:27.484Z,2.80
2022-12-06T03:49:59.720Z,2.80
2022-12-06T03:52:31.001Z,2.80
2022-12-06T03:54:58.890Z,2.80
2022-12-06T03:57:26.932Z,2.80
2022-12-06T03:59:54.855Z,2.80
2022-12-06T04:02:24.234Z,2.80
2022-12-06T04:04:52.263Z,2.80
2022-12-06T04:07:21.324Z,2.80
2022-12-06T04:09:56.609Z,2.80
2022-12-06T04:12:42.590Z,2.80
2022-12-06T04:15:11.945Z,2.80
2022-12-06T04:18:00.072Z,2.80
2022-12-06T04:20:29.915Z,2.80
2022-12-06T04:23:05.739Z,2.80
2022-12-06T04:25:35.359Z,2.80
2022-12-06T04:28:24.474Z,2.80
2022-12-06T04:31:09.943Z,2.80
2022-12-06T04:33:56.685Z,2.80
2022-12-06T04:36:42.277Z,2.80
2022-12-06T04:39:10.328Z,2.80
2022-12-06T04:42:01.193Z,2.80
2022-12-06T04:44:29.139Z,2.80
2022-12-06T04:46:57.219Z,2.80
2022-12-06T04:49:26.809Z,2.70
2022-12-06T04:51:55.168Z,2.80
2022-12-06T04:54:23.155Z,2.80
2022-12-06T04:56:51.157Z,2.80
2022-12-06T04:59:19.094Z,2.80
2022-12-06T05:01:47.125Z,2.80
2022-12-06T05:04:15.568Z,2.80
2022-12-06T05:06:44.868Z,2.80
2022-12-06T05:09:12.944Z,2.80
2022-12-06T05:11:41.363Z,2.80
2022-12-06T05:14:09.510Z,2.80
2022-12-06T05:16:37.635Z,2.70
2022-12-06T05:19:06.109Z,2.70
2022-12-06T05:21:34.021Z,2.70
2022-12-06T05:24:03.293Z,2.80
2022-12-06T05:26:31.409Z,2.70
2022-12-06T05:28:59.860Z,2.70
2022-12-06T05:31:28.006Z,2.70
2022-12-06T05:33:56.079Z,2.70
2022-12-06T05:36:25.676Z,2.70
2022-12-06T05:38:54.735Z,2.70
2022-12-06T05:41:24.889Z,2.70
2022-12-06T05:43:53.007Z,2.70
2022-12-06T05:46:21.170Z,2.70
2022-12-06T05:48:49.191Z,2.70
2022-12-06T05:51:17.068Z,2.70
2022-12-06T05:53:45.081Z,2.60
2022-12-06T05:56:13.842Z,2.60
2022-12-06T05:58:43.077Z,2.70
2022-12-06T06:01:11.335Z,2.70
2022-12-06T06:03:45.542Z,2.60
2022-12-06T06:06:15.413Z,2.60
2022-12-06T06:08:43.684Z,2.60
2022-12-06T06:11:11.766Z,2.50
2022-12-06T06:13:39.709Z,2.60
2022-12-06T06:16:09.213Z,2.60
2022-12-06T06:18:37.240Z,2.50
2022-12-06T06:21:05.565Z,2.50
2022-12-06T06:23:33.953Z,2.50
2022-12-06T06:26:01.897Z,2.50
2022-12-06T06:28:29.802Z,2.50
2022-12-06T06:30:57.765Z,2.50
2022-12-06T06:33:27.006Z,2.50
2022-12-06T06:35:54.902Z,2.50
2022-12-06T06:38:22.820Z,2.50
2022-12-06T06:40:50.784Z,2.50
2022-12-06T06:43:20.214Z,2.50
2022-12-06T06:45:53.305Z,2.50
2022-12-06T06:48:21.934Z,2.50
2022-12-06T06:50:57.061Z,2.50
2022-12-06T06:53:27.665Z,2.50
2022-12-06T06:55:56.427Z,2.40
2022-12-06T06:58:24.927Z,2.40
2022-12-06T07:00:55.160Z,2.40
2022-12-06T07:03:24.215Z,2.40
2022-12-06T07:05:54.472Z,2.40
2022-12-06T07:08:22.865Z,2.50
2022-12-06T07:10:50.992Z,2.50
2022-12-06T07:13:20.619Z,2.50
2022-12-06T07:15:48.990Z,2.50
2022-12-06T07:18:17.766Z,2.50
2022-12-06T07:20:46.021Z,2.50
2022-12-06T07:23:16.125Z,2.60
2022-12-06T07:25:44.025Z,2.60
2022-12-06T07:28:12.218Z,2.60
2022-12-06T07:30:40.180Z,2.70
2022-12-06T07:33:08.085Z,2.70
2022-12-06T07:36:10.504Z,2.70
2022-12-06T07:38:25.206Z,2.70
2022-12-06T07:41:04.512Z,2.70
2022-12-06T07:43:50.456Z,2.70
2022-12-06T07:46:18.550Z,2.80
2022-12-06T07:48:46.479Z,2.70
2022-12-06T07:51:14.359Z,2.80
2022-12-06T07:53:43.606Z,2.70
2022-12-06T07:56:11.914Z,2.70
2022-12-06T07:58:39.908Z,2.70
2022-12-06T08:01:08.039Z,2.70
2022-12-06T08:03:36.004Z,2.70
2022-12-06T08:06:04.196Z,2.70
2022-12-06T08:08:32.892Z,2.70
2022-12-06T08:11:02.634Z,2.70
2022-12-06T08:13:30.709Z,2.80
2022-12-06T08:15:58.976Z,2.80
2022-12-06T08:18:27.011Z,2.70
2022-12-06T08:20:55.249Z,2.70
2022-12-06T08:23:23.187Z,2.70
2022-12-06T08:25:57.961Z,2.70
2022-12-06T08:28:29.195Z,2.80
2022-12-06T08:31:02.896Z,2.70
2022-12-06T08:33:33.742Z,2.70
2022-12-06T08:36:01.706Z,2.70
2022-12-06T08:38:30.151Z,2.70
2022-12-06T08:40:58.062Z,2.70
2022-12-06T08:43:27.331Z,2.70
2022-12-06T08:45:55.295Z,2.80
2022-12-06T08:48:23.455Z,2.70
2022-12-06T08:50:51.490Z,2.70
2022-12-06T08:53:19.377Z,2.70
2022-12-06T08:56:02.054Z,2.70
2022-12-06T08:58:32.060Z,2.70
2022-12-06T09:01:00.101Z,2.70
2022-12-06T09:03:28.095Z,2.70
2022-12-06T09:05:56.052Z,2.70
2022-12-06T09:08:24.054Z,2.70
2022-12-06T09:10:52.056Z,2.80
2022-12-06T09:13:19.962Z,2.70
2022-12-06T09:15:49.307Z,2.70
2022-12-06T09:18:17.243Z,2.70
2022-12-06T09:20:45.247Z,2.70
2022-12-06T09:23:13.157Z,2.70
2022-12-06T09:25:42.382Z,2.70
2022-12-06T09:28:11.415Z,2.70
2022-12-06T09:30:39.337Z,2.70
2022-12-06T09:33:08.720Z,2.70
2022-12-06T09:35:37.230Z,2.70
2022-12-06T09:38:05.878Z,2.80
2022-12-06T09:40:41.244Z,2.80
2022-12-06T09:43:32.545Z,2.80
2022-12-06T09:46:13.318Z,2.80
2022-12-06T09:49:12.315Z,2.80
2022-12-06T09:51:57.207Z,2.70
2022-12-06T09:54:38.926Z,2.80
2022-12-06T09:57:15.146Z,2.80
2022-12-06T09:59:50.598Z,2.80
2022-12-06T10:02:32.606Z,2.80
2022-12-06T10:05:28.825Z,2.80
2022-12-06T10:08:04.007Z,2.80
2022-12-06T10:10:41.391Z,2.70
2022-12-06T10:13:14.156Z,2.80
2022-12-06T10:15:53.643Z,2.80
2022-12-06T10:18:46.394Z,2.70
2022-12-06T10:21:25.778Z,2.80
2022-12-06T10:24:06.959Z,2.70
2022-12-06T10:26:46.052Z,2.70
2022-12-06T10:29:28.827Z,2.70
2022-12-06T10:31:59.759Z,2.70
2022-12-06T10:34:44.404Z,2.70
2022-12-06T10:37:26.629Z,2.70
2022-12-06T10:39:58.069Z,2.70
2022-12-06T10:42:34.423Z,2.80
2022-12-06T10:45:28.133Z,2.80
2022-12-06T10:47:59.429Z,2.80
2022-12-06T10:50:31.816Z,2.80
2022-12-06T10:53:03.434Z,2.80
2022-12-06T10:55:37.290Z,2.80
2022-12-06T10:58:14.857Z,2.90
2022-12-06T11:00:53.569Z,2.90
2022-12-06T11:03:27.850Z,2.90
2022-12-06T11:06:00.912Z,2.90
2022-12-06T11:08:36.147Z,2.80
2022-12-06T11:11:06.720Z,2.90
2022-12-06T11:13:41.018Z,2.90
2022-12-06T11:16:14.691Z,3.00
2022-12-06T11:18:43.363Z,3.00
2022-12-06T11:21:20.673Z,3.00
2022-12-06T11:23:59.970Z,3.00
2022-12-06T11:26:35.886Z,3.00
2022-12-06T11:29:06.818Z,3.10
2022-12-06T11:31:38.969Z,3.00
2022-12-06T11:34:12.768Z,3.00
2022-12-06T11:36:40.736Z,3.00
2022-12-06T11:39:13.941Z,3.00
2022-12-06T11:41:44.559Z,3.00
2022-12-06T11:44:18.439Z,3.00
2022-12-06T11:46:46.545Z,3.10
2022-12-06T11:49:28.332Z,3.10
2022-12-06T11:51:59.404Z,3.00
2022-12-06T11:54:32.977Z,3.00
2022-12-06T11:57:12.003Z,3.00
2022-12-06T11:59:39.898Z,3.00
2022-12-06T12:02:27.828Z,3.00
2022-12-06T12:04:55.771Z,2.90
2022-12-06T12:07:26.007Z,2.90
2022-12-06T12:09:59.431Z,2.90
2022-12-06T12:12:51.211Z,2.90
2022-12-06T12:15:20.515Z,2.90
2022-12-06T12:17:51.030Z,3.00
2022-12-06T12:20:23.037Z,2.90
2022-12-06T12:23:01.861Z,2.90
2022-12-06T12:25:33.461Z,2.90
2022-12-06T12:28:02.258Z,2.90
2022-12-06T12:30:33.574Z,3.00
2022-12-06T12:33:18.640Z,3.00
2022-12-06T12:35:48.451Z,3.00
2022-12-06T12:38:26.526Z,3.00
2022-12-06T12:40:58.490Z,3.00
2022-12-06T12:43:30.877Z,2.90
2022-12-06T12:46:09.213Z,2.90
2022-12-06T12:48:38.610Z,2.90
2022-12-06T12:51:20.176Z,2.90
2022-12-06T12:53:49.519Z,2.90
2022-12-06T12:56:20.725Z,2.90
2022-12-06T12:58:50.990Z,2.90
2022-12-06T13:01:29.766Z,2.90
2022-12-06T13:04:04.701Z,3.00
2022-12-06T13:06:47.816Z,3.00
2022-12-06T13:09:23.786Z,3.00
2022-12-06T13:11:59.544Z,3.00
2022-12-06T13:14:29.302Z,3.00
2022-12-06T13:17:01.601Z,3.00
2022-12-06T13:19:34.611Z,3.00
2022-12-06T13:22:05.789Z,3.00
2022-12-06T13:24:36.496Z,3.00
2022-12-06T13:27:12.916Z,3.00
2022-12-06T13:29:44.935Z,3.00
2022-12-06T13:32:16.804Z,2.90
2022-12-06T13:34:50.882Z,3.00
2022-12-06T13:37:30.889Z,3.00
2022-12-06T13:39:59.507Z,3.00
2022-12-06T13:42:46.440Z,3.00
2022-12-06T13:45:41.748Z,3.00
2022-12-06T13:48:49.214Z,3.00
2022-12-06T13:51:45.465Z,3.00
2022-12-06T13:54:31.224Z,3.00
2022-12-06T13:57:00.685Z,2.90
2022-12-06T13:59:41.409Z,2.90
2022-12-06T14:02:51.540Z,2.90
2022-12-06T14:08:36.075Z,2.90
2022-12-06T14:11:19.730Z,2.90
2022-12-06T14:13:50.114Z,2.90
2022-12-06T14:16:27.272Z,2.90
2022-12-06T14:18:55.547Z,2.90
2022-12-06T14:21:28.466Z,2.90
2022-12-06T14:23:56.890Z,2.80
2022-12-06T14:26:27.438Z,2.80
2022-12-06T14:28:58.170Z,2.80
2022-12-06T14:31:40.356Z,2.80
2022-12-06T14:34:25.864Z,2.80
2022-12-06T14:36:54.713Z,3.00
2022-12-06T14:39:25.880Z,3.00
2022-12-06T14:42:12.862Z,2.90
2022-12-06T14:44:41.280Z,2.90
2022-12-06T14:47:15.484Z,3.00
2022-12-06T14:50:01.428Z,2.90
2022-12-06T14:52:31.559Z,2.90
2022-12-06T14:55:17.520Z,2.80
2022-12-06T14:57:48.108Z,2.80
2022-12-06T15:00:26.510Z,2.80
2022-12-06T15:03:34.986Z,2.80
2022-12-06T15:06:16.040Z,2.80
2022-12-06T15:08:51.828Z,2.80
2022-12-06T15:11:53.193Z,2.80
2022-12-06T15:14:23.121Z,2.80
2022-12-06T15:17:00.719Z,2.80
2022-12-06T15:19:32.415Z,2.80
2022-12-06T15:22:00.942Z,2.80
2022-12-06T15:24:30.280Z,2.70
2022-12-06T15:26:58.174Z,2.80
2022-12-06T15:29:26.147Z,2.80
2022-12-06T15:31:56.156Z,2.80
2022-12-06T15:34:30.477Z,2.80
2022-12-06T15:37:38.121Z,2.80
2022-12-06T15:39:48.483Z,2.70
2022-12-06T15:42:19.503Z,2.80
2022-12-06T15:44:49.726Z,2.90
2022-12-06T15:47:28.748Z,2.90
2022-12-06T15:49:58.511Z,2.80
2022-12-06T15:52:27.905Z,2.80
2022-12-06T15:54:55.963Z,2.70
2022-12-06T15:57:24.973Z,2.70
2022-12-06T15:59:53.157Z,2.70
2022-12-06T16:02:21.241Z,2.80
2022-12-06T16:04:51.008Z,2.70
2022-12-06T16:07:20.563Z,2.70
2022-12-06T16:09:49.242Z,2.60
2022-12-06T16:12:17.928Z,2.50
2022-12-06T16:14:46.183Z,2.60
2022-12-06T16:17:14.260Z,2.50
2022-12-06T16:19:59.677Z,2.40
2022-12-06T16:22:42.999Z,2.40
2022-12-06T16:25:11.377Z,2.40
2022-12-06T16:27:39.616Z,2.30
2022-12-06T16:30:09.028Z,2.30
2022-12-06T16:32:37.173Z,2.30
2022-12-06T16:35:05.595Z,2.30
2022-12-06T16:37:35.148Z,2.30
2022-12-06T16:40:03.252Z,2.30
2022-12-06T16:42:31.588Z,2.30
2022-12-06T16:45:00.424Z,2.30
2022-12-06T16:49:56.757Z,2.20
2022-12-06T16:52:25.460Z,2.20
2022-12-06T16:54:55.124Z,2.10
2022-12-06T16:57:23.190Z,2.10
2022-12-06T16:59:51.261Z,2.20
2022-12-06T17:02:30.749Z,2.20
2022-12-06T17:05:01.192Z,2.20
2022-12-06T17:07:30.143Z,2.10
2022-12-06T17:10:00.321Z,2.10
2022-12-06T17:12:28.853Z,2.10
2022-12-06T17:14:57.034Z,2.10
2022-12-06T17:17:26.198Z,2.10
2022-12-06T17:19:56.185Z,2.10
2022-12-06T17:22:25.124Z,2.10
2022-12-06T17:24:53.453Z,2.10
2022-12-06T17:27:23.073Z,2.10
2022-12-06T17:29:51.750Z,2.00
2022-12-06T17:32:20.600Z,2.00
2022-12-06T17:34:49.360Z,2.00
2022-12-06T17:37:17.699Z,1.90
2022-12-06T17:39:46.001Z,1.90
2022-12-06T17:42:32.164Z,1.90
2022-12-06T17:45:13.715Z,1.80
2022-12-06T17:47:41.897Z,1.70
2022-12-06T17:50:11.572Z,1.70
2022-12-06T17:52:40.125Z,1.70
2022-12-06T17:55:10.236Z,1.70
2022-12-06T17:57:38.767Z,1.70
2022-12-06T18:00:10.541Z,1.70
2022-12-06T18:02:40.326Z,1.60
2022-12-06T18:05:10.353Z,1.60
2022-12-06T18:07:38.525Z,1.70
2022-12-06T18:10:08.242Z,1.70
2022-12-06T18:12:36.998Z,1.70
2022-12-06T18:15:26.010Z,1.70
2022-12-06T18:17:55.678Z,1.70
2022-12-06T18:20:24.150Z,1.70
2022-12-06T18:22:52.307Z,1.60
2022-12-06T18:25:20.449Z,1.60
2022-12-06T18:27:49.093Z,1.70
2022-12-06T18:30:17.526Z,1.60
2022-12-06T18:32:45.847Z,1.60
2022-12-06T18:35:15.884Z,1.60
2022-12-06T18:37:44.370Z,1.60
2022-12-06T18:40:12.878Z,1.50
2022-12-06T18:42:41.158Z,1.60
2022-12-06T18:45:09.706Z,1.60
2022-12-06T18:47:37.993Z,1.60
2022-12-06T18:50:10.069Z,1.60
2022-12-06T18:52:39.928Z,1.50
2022-12-06T18:55:09.219Z,1.50
2022-12-06T18:57:38.075Z,1.60
2022-12-06T19:00:07.783Z,1.60
2022-12-06T19:02:36.084Z,1.50
2022-12-06T19:05:04.365Z,1.50
2022-12-06T19:07:32.795Z,1.60
2022-12-06T19:10:02.832Z,1.40
2022-12-06T19:12:31.429Z,1.40
2022-12-06T19:15:00.179Z,1.40
2022-12-06T19:17:28.765Z,1.40
2022-12-06T19:19:56.820Z,1.40
2022-12-06T19:22:25.114Z,1.40
2022-12-06T19:24:53.728Z,1.40
2022-12-06T19:27:23.550Z,1.40
2022-12-06T19:29:52.183Z,1.40
2022-12-06T19:32:20.525Z,1.40
2022-12-06T19:34:49.973Z,1.40
2022-12-06T19:37:18.409Z,1.40
2022-12-06T19:39:46.532Z,1.40
2022-12-06T19:42:32.057Z,1.50
2022-12-06T19:45:01.791Z,1.40
2022-12-06T19:47:29.948Z,1.40
2022-12-06T19:49:58.618Z,1.40
2022-12-06T19:52:30.807Z,1.40
2022-12-06T19:54:59.183Z,1.40
2022-12-06T19:57:27.323Z,1.40
2022-12-06T19:59:56.536Z,1.40
2022-12-06T20:02:25.956Z,1.40
2022-12-06T20:04:54.084Z,1.40
2022-12-06T20:07:28.277Z,1.50
2022-12-06T20:09:56.820Z,1.50
2022-12-06T20:12:25.093Z,1.50
2022-12-06T20:14:53.385Z,1.40
2022-12-06T20:17:23.697Z,1.40
2022-12-06T20:19:53.187Z,1.40
2022-12-06T20:22:22.761Z,1.40
2022-12-06T20:24:50.986Z,1.30
2022-12-06T20:27:39.045Z,1.30
2022-12-06T20:30:08.346Z,1.40
2022-12-06T20:32:36.416Z,1.30
2022-12-06T20:35:06.198Z,1.30
2022-12-06T20:37:34.244Z,1.30
2022-12-06T20:40:02.850Z,1.30
2022-12-06T20:42:32.238Z,1.30
2022-12-06T20:45:00.469Z,1.30
2022-12-06T20:47:28.903Z,1.20
2022-12-06T20:49:57.172Z,1.20
2022-12-06T20:52:26.851Z,1.20
2022-12-06T20:54:58.196Z,1.20
2022-12-06T20:57:27.178Z,1.20
2022-12-06T20:59:55.312Z,1.20
2022-12-06T21:02:23.665Z,1.20
2022-12-06T21:04:51.839Z,1.20
2022-12-06T21:07:20.048Z,1.20
2022-12-06T21:09:49.433Z,1.20
2022-12-06T21:12:20.233Z,1.10
2022-12-06T21:14:48.321Z,1.10
2022-12-06T21:17:16.342Z,1.10
2022-12-06T21:19:44.496Z,1.20
2022-12-06T21:22:12.660Z,1.20
2022-12-06T21:24:41.055Z,1.10
2022-12-06T21:27:10.662Z,1.10
2022-12-06T21:29:42.500Z,1.10
2022-12-06T21:32:10.628Z,1.10
2022-12-06T21:34:45.956Z,1.10
2022-12-06T21:37:14.935Z,1.10
2022-12-06T21:39:46.301Z,1.10
2022-12-06T21:42:17.278Z,1.10
2022-12-06T21:44:45.493Z,1.10
2022-12-06T21:47:13.572Z,1.10
2022-12-06T21:49:42.323Z,1.10
2022-12-06T21:52:10.378Z,1.10
2022-12-06T21:54:38.445Z,1.10
2022-12-06T21:57:06.417Z,1.10
2022-12-06T21:59:35.884Z,1.20
2022-12-06T22:02:04.746Z,1.20
2022-12-06T22:04:34.504Z,1.30
2022-12-06T22:07:03.957Z,1.20
2022-12-06T22:09:32.411Z,1.20
2022-12-06T22:12:01.202Z,1.20
2022-12-06T22:14:29.402Z,1.10
2022-12-06T22:16:58.782Z,1.20
2022-12-06T22:19:26.991Z,1.20
2022-12-06T22:21:56.171Z,1.20
2022-12-06T22:24:24.179Z,1.20
2022-12-06T22:26:52.127Z,1.20
2022-12-06T22:29:20.120Z,1.20
2022-12-06T22:31:48.202Z,1.20
2022-12-06T22:34:17.729Z,1.10
2022-12-06T22:36:45.794Z,1.20
2022-12-06T22:39:13.915Z,1.10
2022-12-06T22:41:41.805Z,1.10
2022-12-06T22:44:11.256Z,1.10
2022-12-06T22:46:39.308Z,1.10
2022-12-06T22:49:07.443Z,1.10
2022-12-06T22:51:40.442Z,1.10
2022-12-06T22:54:12.026Z,1.10
2022-12-06T22:56:47.114Z,1.10
2022-12-06T22:59:15.561Z,1.10
2022-12-06T23:01:43.607Z,1.10
2022-12-06T23:04:12.460Z,1.10
2022-12-06T23:06:41.822Z,1.10
2022-12-06T23:09:12.766Z,1.10
2022-12-06T23:11:40.756Z,1.10
2022-12-06T23:14:13.256Z,1.10
2022-12-06T23:16:43.620Z,1.10
2022-12-06T23:19:11.928Z,1.10
2022-12-06T23:21:42.416Z,1.10
2022-12-06T23:24:12.639Z,1.10
2022-12-06T23:26:42.847Z,1.10
2022-12-06T23:29:11.654Z,1.10
2022-12-06T23:31:41.643Z,1.10
2022-12-06T23:34:13.446Z,1.10
2022-12-06T23:36:43.336Z,1.10
2022-12-06T23:39:12.359Z,1.10
2022-12-06T23:41:40.562Z,1.10
2022-12-06T23:44:10.707Z,1.10
2022-12-06T23:46:40.878Z,1.10
2022-12-06T23:49:13.088Z,1.10
2022-12-06T23:51:42.375Z,1.10
2022-12-06T23:54:12.069Z,1.10
2022-12-06T23:56:41.984Z,1.10
2022-12-06T23:59:16.118Z,1.10
